Time;durP1;ratioP1;P1;durP2;ratioP2;P2;SDS_P1;SDS_P2;PMS_P1;PMS_P2;Temp;Humidity;BMP_temperature;BMP_pressure;BME280_temperature;BME280_humidity;BME280_pressure;Samples;Min_cycle;Max_cycle;Signal;HPM_P1;HPM_P2
2021/04/11 00:00:24;;;;;;;29.90;17.48;;;7.20;99.90;;;;;;5045816;28;20216;-81
2021/04/11 00:02:52;;;;;;;31.10;19.05;;;7.20;99.90;;;;;;5062784;28;20184;-80
2021/04/11 00:05:22;;;;;;;26.63;16.92;;;7.20;99.90;;;;;;5062451;28;20173;-80
2021/04/11 00:07:49;;;;;;;23.50;16.25;;;7.20;99.90;;;;;;5050519;28;20189;-78
2021/04/11 00:10:21;;;;;;;28.05;16.67;;;7.20;99.90;;;;;;5088942;22;20467;-66
2021/04/11 00:12:48;;;;;;;34.38;18.55;;;7.20;99.90;;;;;;5071588;28;20180;-66
2021/04/11 00:15:16;;;;;;;27.67;17.25;;;7.10;99.90;;;;;;5071572;28;20183;-66
2021/04/11 00:17:44;;;;;;;27.88;18.42;;;7.10;99.90;;;;;;5071777;28;20203;-65
2021/04/11 00:20:13;;;;;;;33.40;17.15;;;7.10;99.90;;;;;;5071413;28;20208;-66
2021/04/11 00:22:41;;;;;;;29.95;16.73;;;7.10;99.90;;;;;;5071804;28;20663;-66
2021/04/11 00:25:10;;;;;;;34.38;20.30;;;7.20;99.90;;;;;;5071803;28;20184;-67
2021/04/11 00:27:38;;;;;;;19.42;13.93;;;7.20;99.90;;;;;;5071383;28;20239;-66
2021/04/11 00:30:06;;;;;;;22.88;16.98;;;7.20;99.90;;;;;;5053295;28;20184;-65
2021/04/11 00:32:33;;;;;;;32.90;21.65;;;7.10;99.90;;;;;;5071792;28;20180;-65
2021/04/11 00:35:00;;;;;;;28.33;19.38;;;7.10;99.90;;;;;;5071666;28;20176;-65
2021/04/11 00:37:29;;;;;;;30.83;18.75;;;7.20;99.90;;;;;;5071650;28;20589;-65
2021/04/11 00:39:56;;;;;;;31.85;20.50;;;7.20;99.90;;;;;;5071648;28;20253;-66
2021/04/11 00:42:29;;;;;;;27.88;17.60;;;7.20;99.90;;;;;;5053354;28;20563;-66
2021/04/11 00:45:09;;;;;;;32.67;19.70;;;7.20;99.90;;;;;;5071440;28;20175;-66
2021/04/11 00:47:39;;;;;;;40.10;25.17;;;7.20;99.90;;;;;;5071325;28;20211;-67
2021/04/11 00:50:12;;;;;;;28.85;20.02;;;7.20;99.90;;;;;;5053817;28;20307;-65
2021/04/11 00:52:40;;;;;;;31.17;19.92;;;7.20;99.90;;;;;;5071763;28;20542;-65
2021/04/11 00:55:09;;;;;;;29.67;19.77;;;7.20;99.90;;;;;;5054230;28;20229;-66
2021/04/11 00:57:37;;;;;;;29.38;20.48;;;7.10;99.90;;;;;;5071901;28;20212;-67
2021/04/11 01:00:06;;;;;;;30.38;19.88;;;7.10;99.90;;;;;;5053002;28;20192;-66
2021/04/11 01:02:34;;;;;;;31.15;20.33;;;7.10;99.90;;;;;;5070690;28;20184;-66
2021/04/11 01:05:01;;;;;;;26.23;18.70;;;7.10;99.90;;;;;;5056368;28;20188;-66
2021/04/11 01:07:29;;;;;;;34.63;20.48;;;7.10;99.90;;;;;;5039696;28;20579;-66
2021/04/11 01:09:58;;;;;;;33.88;20.80;;;7.00;99.90;;;;;;5054572;28;20260;-65
2021/04/11 01:12:25;;;;;;;29.17;19.73;;;7.10;99.90;;;;;;5054512;28;20623;-66
2021/04/11 01:14:53;;;;;;;26.92;18.63;;;7.10;99.90;;;;;;5054080;28;20188;-68
2021/04/11 01:17:25;;;;;;;33.13;22.65;;;7.00;99.90;;;;;;5036066;28;20714;-67
2021/04/11 01:19:57;;;;;;;33.08;21.65;;;7.00;99.90;;;;;;5053902;28;20170;-67
2021/04/11 01:22:39;;;;;;;37.05;24.08;;;7.10;99.90;;;;;;5036093;28;20634;-66
2021/04/11 01:25:17;;;;;;;39.05;23.67;;;7.00;99.90;;;;;;5054227;28;20177;-66
2021/04/11 01:27:45;;;;;;;29.50;21.88;;;7.10;99.90;;;;;;5036073;28;20701;-66
2021/04/11 01:30:19;;;;;;;33.60;20.60;;;7.10;99.90;;;;;;5035901;28;20191;-68
2021/04/11 01:32:48;;;;;;;37.92;22.83;;;7.10;99.90;;;;;;5035971;28;20379;-67
2021/04/11 01:35:17;;;;;;;31.42;22.55;;;7.10;99.90;;;;;;5053980;28;20185;-66
2021/04/11 01:37:45;;;;;;;34.25;22.70;;;7.10;99.90;;;;;;5054258;28;20236;-66
2021/04/11 01:40:18;;;;;;;31.83;20.45;;;7.10;99.90;;;;;;5035831;28;20189;-66
2021/04/11 01:42:47;;;;;;;34.67;23.92;;;7.10;99.90;;;;;;5035871;28;20192;-65
2021/04/11 01:45:15;;;;;;;33.03;22.35;;;7.20;99.90;;;;;;5053892;28;20261;-66
2021/04/11 01:47:43;;;;;;;34.55;21.10;;;7.10;99.90;;;;;;5035768;28;20259;-65
2021/04/11 01:50:12;;;;;;;25.92;19.20;;;7.20;99.90;;;;;;5053806;28;20247;-65
2021/04/11 01:52:41;;;;;;;33.13;23.55;;;7.10;99.90;;;;;;5053548;28;20189;-66
2021/04/11 01:55:11;;;;;;;34.72;22.23;;;7.10;99.90;;;;;;5035469;28;20223;-67
2021/04/11 01:57:41;;;;;;;39.42;22.92;;;7.10;99.90;;;;;;5035725;28;20209;-67
2021/04/11 02:00:20;;;;;;;37.67;26.45;;;7.10;99.90;;;;;;5035372;28;20689;-66
2021/04/11 02:02:54;;;;;;;35.45;23.67;;;7.10;99.90;;;;;;5035616;28;20189;-65
2021/04/11 02:05:22;;;;;;;35.03;23.20;;;7.20;99.90;;;;;;5053182;28;20181;-67
2021/04/11 02:07:54;;;;;;;46.50;26.83;;;7.10;99.90;;;;;;5053316;28;20215;-66
2021/04/11 02:10:28;;;;;;;33.08;24.13;;;7.10;99.90;;;;;;5053294;28;20208;-66
2021/04/11 02:13:12;;;;;;;35.95;22.17;;;7.10;99.90;;;;;;5053682;28;20165;-65
2021/04/11 02:15:45;;;;;;;34.47;22.00;;;7.10;99.90;;;;;;5034752;28;20617;-65
2021/04/11 02:18:14;;;;;;;38.65;25.58;;;7.10;99.90;;;;;;5053285;28;20221;-66
2021/04/11 02:20:43;;;;;;;40.13;26.67;;;7.10;99.90;;;;;;5053197;28;20204;-65
2021/04/11 02:23:13;;;;;;;47.72;26.35;;;7.10;99.90;;;;;;5035464;28;20294;-68
2021/04/11 02:25:45;;;;;;;48.35;26.33;;;7.10;99.90;;;;;;5053012;28;20165;-66
2021/04/11 02:28:15;;;;;;;33.13;23.13;;;7.00;99.90;;;;;;5053347;28;20291;-66
2021/04/11 02:30:45;;;;;;;34.83;23.02;;;7.00;99.90;;;;;;5053105;28;20165;-65
2021/04/11 02:33:16;;;;;;;46.42;26.88;;;7.00;99.90;;;;;;5034939;28;20193;-65
2021/04/11 02:35:43;;;;;;;38.17;25.95;;;7.00;99.90;;;;;;5034793;28;20200;-66
2021/04/11 02:38:13;;;;;;;37.42;25.67;;;7.10;99.90;;;;;;5034685;28;20667;-66
2021/04/11 02:40:45;;;;;;;44.13;26.23;;;7.00;99.90;;;;;;5052647;28;20193;-65
2021/04/11 02:43:20;;;;;;;43.25;26.30;;;7.00;99.90;;;;;;5034730;28;20185;-67
2021/04/11 02:45:47;;;;;;;33.92;24.70;;;7.00;99.90;;;;;;5053083;28;20192;-65
2021/04/11 02:48:17;;;;;;;41.58;26.50;;;6.90;99.90;;;;;;5034555;28;20213;-65
2021/04/11 02:51:05;;;;;;;40.33;27.08;;;7.00;99.90;;;;;;5034634;28;20230;-66
2021/04/11 02:53:42;;;;;;;51.17;27.55;;;7.10;99.90;;;;;;5034655;28;20242;-64
2021/04/11 02:56:19;;;;;;;40.25;26.38;;;7.10;99.90;;;;;;5052516;28;20215;-66
2021/04/11 02:58:51;;;;;;;45.92;26.17;;;7.10;99.90;;;;;;5035272;28;20196;-65
2021/04/11 03:01:24;;;;;;;44.75;26.92;;;7.20;99.90;;;;;;5034822;28;20623;-67
2021/04/11 03:03:54;;;;;;;42.88;25.52;;;7.20;99.90;;;;;;5034918;28;20218;-67
2021/04/11 03:06:25;;;;;;;50.20;26.73;;;7.20;99.90;;;;;;5052458;28;20184;-65
2021/04/11 03:08:59;;;;;;;45.60;24.92;;;7.20;99.90;;;;;;5034206;28;20196;-66
2021/04/11 03:11:39;;;;;;;42.58;26.92;;;7.20;99.90;;;;;;5033093;28;20581;-65
2021/04/11 03:14:11;;;;;;;40.75;27.08;;;7.10;99.90;;;;;;5034135;28;20188;-67
2021/04/11 03:16:43;;;;;;;49.63;27.30;;;7.20;99.90;;;;;;5033934;28;20213;-67
2021/04/11 03:19:17;;;;;;;43.13;27.17;;;7.20;99.90;;;;;;5052209;28;20191;-66
2021/04/11 03:21:44;;;;;;;42.50;24.63;;;7.10;99.90;;;;;;5034113;28;20239;-66
2021/04/11 03:24:14;;;;;;;41.00;27.35;;;7.20;99.90;;;;;;5033997;28;20280;-67
2021/04/11 03:26:47;;;;;;;53.58;29.27;;;7.10;99.90;;;;;;5050757;28;20211;-66
2021/04/11 03:29:24;;;;;;;45.38;28.25;;;7.10;99.90;;;;;;5052095;28;20212;-65
2021/04/11 03:31:56;;;;;;;36.63;25.42;;;7.10;99.90;;;;;;5033803;28;20620;-65
2021/04/11 03:34:26;;;;;;;46.80;29.00;;;7.10;99.90;;;;;;5033911;28;20204;-66
2021/04/11 03:36:54;;;;;;;49.42;30.73;;;7.10;99.90;;;;;;5033897;28;20759;-66
2021/04/11 03:39:23;;;;;;;44.40;27.65;;;7.20;99.90;;;;;;5034330;28;20653;-65
2021/04/11 03:41:50;;;;;;;46.75;29.67;;;7.20;99.90;;;;;;5051998;28;20193;-65
2021/04/11 03:44:22;;;;;;;41.90;27.88;;;7.20;99.90;;;;;;5052111;28;20192;-65
2021/04/11 03:47:01;;;;;;;43.10;29.05;;;7.20;99.90;;;;;;5052116;28;20448;-65
2021/04/11 03:49:36;;;;;;;44.15;27.48;;;7.20;99.90;;;;;;5033725;28;20192;-66
2021/04/11 03:52:09;;;;;;;41.00;29.10;;;7.10;99.90;;;;;;5051754;28;20200;-66
2021/04/11 03:54:39;;;;;;;43.78;27.55;;;7.20;99.90;;;;;;5033240;28;20207;-65
2021/04/11 03:57:13;;;;;;;50.13;28.65;;;7.20;99.90;;;;;;5033620;28;20227;-65
2021/04/11 03:59:50;;;;;;;46.83;28.02;;;7.20;99.90;;;;;;5051265;28;20586;-65
2021/04/11 04:02:21;;;;;;;52.63;28.48;;;7.10;99.90;;;;;;5033523;28;20228;-65
2021/04/11 04:04:50;;;;;;;46.80;28.40;;;7.20;99.90;;;;;;5051535;28;20183;-66
2021/04/11 04:07:21;;;;;;;43.83;25.00;;;7.20;99.90;;;;;;5034007;28;20212;-66
2021/04/11 04:09:57;;;;;;;48.25;28.90;;;7.20;99.90;;;;;;5051826;28;20181;-66
2021/04/11 04:12:51;;;;;;;51.65;30.63;;;7.20;99.90;;;;;;5033911;28;20254;-66
2021/04/11 04:15:42;;;;;;;43.88;25.45;;;7.20;99.90;;;;;;5033453;28;20224;-66
2021/04/11 04:18:50;;;;;;;47.70;32.05;;;7.20;99.90;;;;;;5032302;28;20217;-65
2021/04/11 04:21:48;;;;;;;42.72;31.25;;;7.20;99.90;;;;;;5033369;28;20216;-66
2021/04/11 04:24:34;;;;;;;41.97;28.08;;;7.30;99.90;;;;;;5034729;28;20216;-65
2021/04/11 04:27:24;;;;;;;54.45;29.10;;;7.30;99.90;;;;;;5051427;28;20754;-66
2021/04/11 04:30:04;;;;;;;43.17;26.63;;;7.30;99.90;;;;;;5033423;28;20188;-66
2021/04/11 04:32:54;;;;;;;47.70;26.80;;;7.30;99.90;;;;;;5033406;28;20624;-64
2021/04/11 04:35:33;;;;;;;49.88;29.08;;;7.30;99.90;;;;;;5033677;28;20189;-65
2021/04/11 04:38:15;;;;;;;47.63;26.95;;;7.30;99.90;;;;;;5036121;28;20204;-64
2021/04/11 04:40:56;;;;;;;41.85;26.13;;;7.30;99.90;;;;;;5037699;28;20611;-65
2021/04/11 04:43:29;;;;;;;45.22;27.80;;;7.30;99.90;;;;;;5055087;28;20622;-65
2021/04/11 04:46:09;;;;;;;40.60;27.92;;;7.30;99.90;;;;;;5055319;28;20385;-65
2021/04/11 04:48:41;;;;;;;42.00;27.77;;;7.30;99.90;;;;;;5054833;28;20246;-65
2021/04/11 04:51:18;;;;;;;47.10;30.25;;;7.30;99.90;;;;;;5037515;28;20196;-64
2021/04/11 04:53:59;;;;;;;44.58;28.33;;;7.30;99.90;;;;;;5037655;28;20199;-65
2021/04/11 04:56:37;;;;;;;42.97;28.42;;;7.40;99.90;;;;;;5055278;28;20188;-65
2021/04/11 04:59:12;;;;;;;51.42;30.92;;;7.40;99.90;;;;;;5037104;28;20180;-64
2021/04/11 05:01:46;;;;;;;44.70;29.90;;;7.40;99.90;;;;;;5037145;28;20223;-65
2021/04/11 05:04:21;;;;;;;55.70;30.83;;;7.50;99.90;;;;;;5036853;28;20203;-66
2021/04/11 05:06:58;;;;;;;52.80;31.05;;;7.50;99.90;;;;;;5036580;28;20220;-65
2021/04/11 05:09:40;;;;;;;49.53;30.25;;;7.50;99.90;;;;;;5036984;28;20280;-65
2021/04/11 05:12:33;;;;;;;51.22;30.02;;;7.60;99.90;;;;;;5036611;28;20197;-65
2021/04/11 05:15:05;;;;;;;37.08;26.90;;;7.70;99.90;;;;;;5029543;28;20196;-65
2021/04/11 05:17:35;;;;;;;50.10;30.58;;;7.80;99.90;;;;;;5036550;28;20294;-66
2021/04/11 05:20:09;;;;;;;42.58;29.65;;;7.90;99.90;;;;;;5036709;28;20727;-64
2021/04/11 05:22:49;;;;;;;47.97;29.48;;;7.90;99.90;;;;;;5036630;28;20212;-66
2021/04/11 05:25:32;;;;;;;49.53;29.95;;;7.90;99.90;;;;;;5054382;28;20169;-66
2021/04/11 05:28:07;;;;;;;41.08;29.00;;;7.90;99.90;;;;;;5036715;28;20212;-66
2021/04/11 05:30:42;;;;;;;43.03;29.25;;;8.00;99.90;;;;;;5054801;28;20200;-65
2021/04/11 05:33:11;;;;;;;46.65;28.13;;;8.00;99.90;;;;;;5054223;28;20702;-65
2021/04/11 05:35:39;;;;;;;46.42;29.05;;;8.00;99.90;;;;;;5036195;28;20538;-66
2021/04/11 05:38:14;;;;;;;43.95;27.30;;;8.10;99.90;;;;;;5036315;28;20223;-67
2021/04/11 05:40:45;;;;;;;51.50;31.45;;;8.10;99.90;;;;;;5054175;28;20176;-65
2021/04/11 05:43:18;;;;;;;45.80;28.33;;;8.00;99.90;;;;;;5054011;28;20590;-66
2021/04/11 05:45:54;;;;;;;47.00;26.67;;;8.00;99.90;;;;;;5053880;28;20230;-66
2021/04/11 05:48:29;;;;;;;40.55;26.27;;;8.10;99.90;;;;;;5053809;28;20714;-65
2021/04/11 05:51:02;;;;;;;46.47;29.73;;;8.10;99.90;;;;;;5053052;28;20191;-64
2021/04/11 05:53:34;;;;;;;41.80;29.08;;;8.10;99.90;;;;;;5053792;28;20547;-65
2021/04/11 05:56:04;;;;;;;42.08;26.17;;;8.10;99.90;;;;;;5053447;28;20235;-65
2021/04/11 05:58:38;;;;;;;40.25;27.40;;;8.10;99.90;;;;;;5053985;28;20208;-65
2021/04/11 06:01:09;;;;;;;44.80;27.38;;;8.10;99.90;;;;;;5037643;28;20613;-65
2021/04/11 06:03:42;;;;;;;41.53;28.85;;;8.10;99.90;;;;;;5053974;28;20263;-65
2021/04/11 06:06:17;;;;;;;44.83;28.65;;;8.10;99.90;;;;;;5032475;28;20290;-65
2021/04/11 06:08:55;;;;;;;45.00;26.95;;;8.10;99.90;;;;;;5049485;28;20200;-65
2021/04/11 06:11:33;;;;;;;45.08;29.17;;;8.00;99.90;;;;;;5079120;22;20667;-66
2021/04/11 06:14:05;;;;;;;51.25;28.48;;;8.00;99.90;;;;;;5055842;28;20253;-67
2021/04/11 06:16:34;;;;;;;40.17;28.85;;;8.00;99.90;;;;;;5080302;28;20173;-67
2021/04/11 06:19:02;;;;;;;41.55;29.15;;;8.10;99.90;;;;;;5081170;28;20283;-67
2021/04/11 06:21:39;;;;;;;50.83;29.38;;;8.20;99.90;;;;;;5080440;28;20199;-68
2021/04/11 06:24:17;;;;;;;38.40;27.75;;;8.30;99.90;;;;;;5081957;28;20176;-68
2021/04/11 06:26:51;;;;;;;38.63;25.98;;;8.40;99.90;;;;;;5062343;28;20306;-67
2021/04/11 06:29:22;;;;;;;41.90;29.48;;;8.50;99.90;;;;;;5066091;28;20203;-69
2021/04/11 06:31:57;;;;;;;40.78;29.33;;;8.50;99.90;;;;;;5066454;28;20195;-67
2021/04/11 06:34:32;;;;;;;48.60;32.15;;;8.80;99.90;;;;;;5083297;28;20192;-67
2021/04/11 06:37:04;;;;;;;38.92;25.98;;;8.80;99.90;;;;;;5073144;28;20203;-67
2021/04/11 06:39:36;;;;;;;48.97;29.10;;;8.80;1.00;;;;;;5072817;28;20297;-66
2021/04/11 06:42:39;;;;;;;43.90;28.45;;;8.90;1.00;;;;;;5072415;28;20629;-65
2021/04/11 06:45:28;;;;;;;45.70;27.70;;;8.90;1.00;;;;;;5066346;28;20242;-67
2021/04/11 06:48:28;;;;;;;45.05;27.08;;;8.80;1.00;;;;;;5056339;28;20289;-67
2021/04/11 06:51:15;;;;;;;41.70;27.70;;;8.90;1.00;;;;;;5073139;28;20210;-67
2021/04/11 06:54:24;;;;;;;42.05;25.38;;;9.00;99.90;;;;;;5054581;28;20188;-67
2021/04/11 06:57:07;;;;;;;43.72;28.10;;;9.10;99.90;;;;;;5072696;28;20246;-67
2021/04/11 06:59:55;;;;;;;38.33;26.58;;;9.20;99.90;;;;;;5054243;28;20609;-67
2021/04/11 07:03:05;;;;;;;46.42;28.30;;;9.20;99.90;;;;;;5072335;28;20200;-67
2021/04/11 07:06:08;;;;;;;35.33;24.90;;;9.30;99.90;;;;;;5054869;28;20188;-67
2021/04/11 07:08:56;;;;;;;43.80;28.23;;;9.50;1.00;;;;;;5069733;28;20584;-67
2021/04/11 07:12:05;;;;;;;42.05;28.38;;;9.70;99.90;;;;;;5055066;28;20210;-67
2021/04/11 07:15:02;;;;;;;42.72;23.95;;;9.90;24.80;;;;;;5072986;28;20637;-67
2021/04/11 07:17:44;;;;;;;37.70;26.40;;;10.10;1.00;;;;;;5072367;28;20236;-66
2021/04/11 07:20:34;;;;;;;40.63;26.60;;;10.30;99.90;;;;;;5074269;28;20271;-67
2021/04/11 07:23:26;;;;;;;43.70;27.13;;;10.20;99.90;;;;;;5074629;28;20200;-66
2021/04/11 07:26:26;;;;;;;43.65;27.10;;;10.00;1.00;;;;;;5074517;28;20188;-68
2021/04/11 07:29:09;;;;;;;39.90;25.52;;;10.20;1.00;;;;;;5068715;28;20228;-66
2021/04/11 07:32:14;;;;;;;38.90;25.48;;;10.30;1.00;;;;;;5058309;28;20188;-66
2021/04/11 07:34:57;;;;;;;39.00;27.58;;;10.50;99.90;;;;;;5058044;28;20233;-67
2021/04/11 07:37:47;;;;;;;37.33;24.10;;;10.80;99.90;;;;;;5074680;28;20213;-66
2021/04/11 07:40:22;;;;;;;34.67;23.60;;;11.40;1.00;;;;;;5034235;28;20208;-67
2021/04/11 07:43:18;;;;;;;34.20;23.53;;;11.80;99.90;;;;;;5065508;28;20436;-67
2021/04/11 07:46:17;;;;;;;41.33;25.70;;;12.30;1.00;;;;;;5074575;28;20420;-68
2021/04/11 07:49:27;;;;;;;35.67;23.83;;;12.00;1.00;;;;;;5052705;28;20416;-67
2021/04/11 07:52:15;;;;;;;26.87;21.67;;;12.00;99.90;;;;;;5054946;28;20378;-67
2021/04/11 07:54:50;;;;;;;29.70;24.67;;;12.00;99.90;;;;;;5055557;28;20477;-67
2021/04/11 07:57:34;;;;;;;33.27;24.23;;;12.30;99.90;;;;;;5055813;28;20755;-66
2021/04/11 08:00:12;;;;;;;31.23;20.80;;;12.60;1.00;;;;;;5070803;28;20421;-65
2021/04/11 08:03:04;;;;;;;26.20;22.27;;;12.90;99.90;;;;;;5062585;28;20462;-67
2021/04/11 08:06:01;;;;;;;32.13;22.30;;;13.20;1.00;;;;;;5075570;28;20415;-68
2021/04/11 08:08:37;;;;;;;30.17;21.50;;;13.30;17.50;;;;;;5075578;28;20454;-66
2021/04/11 08:11:37;;;;;;;31.93;22.73;;;13.30;99.90;;;;;;5073952;28;20426;-66
2021/04/11 08:14:14;;;;;;;28.30;20.37;;;13.50;99.90;;;;;;5061066;28;20963;-67
2021/04/11 08:16:48;;;;;;;31.83;22.10;;;13.40;1.00;;;;;;5072816;28;20540;-66
2021/04/11 08:19:46;;;;;;;25.87;19.70;;;13.30;1.00;;;;;;5068180;28;20433;-65
2021/04/11 08:22:37;;;;;;;25.93;20.07;;;13.40;99.90;;;;;;5055286;28;20478;-66
2021/04/11 08:25:18;;;;;;;28.67;18.83;;;13.50;99.90;;;;;;5054622;28;20405;-68
2021/04/11 08:28:27;;;;;;;22.50;19.10;;;13.70;1.00;;;;;;5056139;28;20822;-66
2021/04/11 08:31:06;;;;;;;30.37;19.13;;;13.80;99.90;;;;;;5053572;28;20437;-66
2021/04/11 08:33:47;;;;;;;29.50;21.93;;;14.00;99.90;;;;;;5053784;28;20726;-67
2021/04/11 08:36:39;;;;;;;24.27;19.80;;;14.20;1.00;;;;;;5059347;28;20526;-66
2021/04/11 08:39:39;;;;;;;27.00;21.33;;;14.30;99.90;;;;;;5072623;28;20417;-68
2021/04/11 08:42:19;;;;;;;26.70;18.60;;;14.30;1.00;;;;;;5075645;28;20458;-68
2021/04/11 08:44:58;;;;;;;29.27;20.77;;;14.20;1.00;;;;;;5075695;28;20869;-67
2021/04/11 08:47:35;;;;;;;27.37;18.63;;;14.20;1.00;;;;;;5074778;28;20456;-69
2021/04/11 08:50:08;;;;;;;23.50;21.00;;;14.50;1.00;;;;;;5074308;28;20468;-66
2021/04/11 08:52:44;;;;;;;22.10;16.63;;;14.60;1.00;;;;;;5055592;28;20428;-67
2021/04/11 08:55:24;;;;;;;26.10;18.60;;;14.90;99.90;;;;;;5072594;28;20396;-67
2021/04/11 08:58:10;;;;;;;19.90;16.97;;;15.10;99.90;;;;;;5072761;28;20440;-67
2021/04/11 09:00:48;;;;;;;21.00;17.57;;;15.00;99.90;;;;;;5072461;28;20454;-69
2021/04/11 09:03:38;;;;;;;24.97;15.47;;;15.00;99.90;;;;;;5073292;28;20444;-67
2021/04/11 09:06:14;;;;;;;15.93;13.63;;;14.90;99.90;;;;;;5069580;28;20397;-67
2021/04/11 09:08:52;;;;;;;23.10;15.23;;;14.70;99.90;;;;;;5076183;28;20434;-67
2021/04/11 09:11:28;;;;;;;20.53;15.50;;;14.80;99.90;;;;;;5056400;28;20857;-67
2021/04/11 09:14:21;;;;;;;21.77;16.33;;;14.80;99.90;;;;;;5060536;28;20478;-73
2021/04/11 09:17:04;;;;;;;22.63;15.40;;;15.10;99.90;;;;;;5068385;28;20432;-66
2021/04/11 09:19:37;;;;;;;16.90;14.93;;;15.40;99.90;;;;;;5077078;28;20401;-66
2021/04/11 09:22:24;;;;;;;18.50;15.07;;;15.70;99.90;;;;;;5076033;28;20481;-69
2021/04/11 09:24:58;;;;;;;18.40;16.00;;;15.90;99.90;;;;;;5071738;28;20426;-66
2021/04/11 09:27:45;;;;;;;22.87;16.33;;;16.10;99.90;;;;;;5071128;28;20516;-67
2021/04/11 09:30:28;;;;;;;18.23;14.67;;;16.00;99.90;;;;;;5066732;28;20709;-66
2021/04/11 09:33:26;;;;;;;19.40;15.40;;;16.00;99.90;;;;;;5071182;28;20420;-68
2021/04/11 09:36:07;;;;;;;18.70;14.17;;;16.00;99.90;;;;;;5075256;28;20449;-67
2021/04/11 09:38:45;;;;;;;15.60;13.03;;;16.00;99.90;;;;;;5054263;28;20450;-67
2021/04/11 09:41:48;;;;;;;21.47;15.70;;;15.70;99.90;;;;;;5074693;28;20535;-67
2021/04/11 09:44:43;;;;;;;15.57;14.03;;;15.50;99.90;;;;;;5069607;28;20451;-67
2021/04/11 09:47:41;;;;;;;20.33;14.20;;;15.50;99.90;;;;;;5054357;28;20956;-68
2021/04/11 09:50:18;;;;;;;16.60;14.17;;;15.50;99.90;;;;;;5037091;28;20425;-67
2021/04/11 09:53:27;;;;;;;15.90;13.20;;;15.50;99.90;;;;;;5055704;28;20515;-69
2021/04/11 09:56:03;;;;;;;16.00;13.70;;;15.80;99.90;;;;;;5054735;28;20454;-67
2021/04/11 09:58:50;;;;;;;16.73;13.97;;;15.60;99.90;;;;;;5055036;28;20768;-67
2021/04/11 10:01:31;;;;;;;16.53;13.83;;;15.60;99.90;;;;;;5055656;28;20402;-68
2021/04/11 10:04:13;;;;;;;18.00;14.03;;;15.90;99.90;;;;;;5055843;28;20764;-68
2021/04/11 10:07:03;;;;;;;16.97;13.43;;;15.80;99.90;;;;;;5056226;28;20480;-67
2021/04/11 10:09:48;;;;;;;15.23;13.47;;;16.10;99.90;;;;;;5077527;28;20457;-68
2021/04/11 10:12:56;;;;;;;13.97;12.00;;;16.30;99.90;;;;;;5077878;28;20413;-66
2021/04/11 10:15:30;;;;;;;14.73;12.07;;;16.60;99.90;;;;;;4972190;28;20506;-67
2021/04/11 10:18:32;;;;;;;14.83;12.53;;;16.70;99.90;;;;;;5044686;28;20446;-67
2021/04/11 10:21:14;;;;;;;15.20;12.67;;;16.80;99.90;;;;;;5053050;28;20430;-65
2021/04/11 10:23:54;;;;;;;17.30;13.43;;;16.80;99.90;;;;;;5035047;28;20492;-66
2021/04/11 10:26:24;;;;;;;14.50;12.47;;;16.90;99.90;;;;;;5054574;28;20419;-66
2021/04/11 10:28:57;;;;;;;21.57;14.00;;;17.30;99.90;;;;;;5057148;28;20432;-67
2021/04/11 10:31:33;;;;;;;13.73;12.27;;;17.40;99.90;;;;;;5039826;28;20394;-66
2021/04/11 10:34:09;;;;;;;15.00;13.10;;;17.50;99.90;;;;;;5057307;28;20898;-65
2021/04/11 10:36:41;;;;;;;14.30;12.67;;;17.70;99.90;;;;;;5063269;28;20947;-68
2021/04/11 10:39:18;;;;;;;13.10;11.80;;;18.00;99.90;;;;;;5072571;28;20442;-68
2021/04/11 10:42:00;;;;;;;14.40;11.93;;;18.20;99.90;;;;;;5065733;28;20556;-66
2021/04/11 10:44:41;;;;;;;13.93;12.53;;;18.30;99.90;;;;;;5068834;28;20492;-67
2021/04/11 10:47:42;;;;;;;14.03;11.87;;;17.90;99.90;;;;;;5071589;28;20783;-67
2021/04/11 10:50:17;;;;;;;21.17;12.20;;;17.70;99.90;;;;;;5032064;28;20415;-68
2021/04/11 10:53:06;;;;;;;13.77;11.50;;;17.90;99.90;;;;;;5074067;28;20447;-67
2021/04/11 10:56:11;;;;;;;32.30;21.97;;;18.00;99.90;;;;;;5076835;28;20678;-67
2021/04/11 10:59:08;;;;;;;64.53;40.17;;;18.40;99.90;;;;;;5079995;28;20453;-67
2021/04/11 11:01:50;;;;;;;17.03;15.00;;;18.70;99.90;;;;;;5079738;28;20432;-67
2021/04/11 11:04:50;;;;;;;14.47;11.10;;;18.90;99.90;;;;;;5077704;28;20446;-65
2021/04/11 11:07:39;;;;;;;15.10;11.77;;;18.90;99.90;;;;;;5078622;28;20430;-66
2021/04/11 11:10:15;;;;;;;15.33;13.30;;;18.80;99.90;;;;;;5082155;28;20393;-66
2021/04/11 11:13:19;;;;;;;14.90;10.70;;;18.60;99.90;;;;;;5079346;28;20389;-67
2021/04/11 11:16:01;;;;;;;12.40;9.93;;;18.80;99.90;;;;;;5072131;28;20423;-66
2021/04/11 11:18:45;;;;;;;12.80;10.23;;;18.80;99.90;;;;;;5072992;28;20442;-68
2021/04/11 11:21:31;;;;;;;10.63;9.03;;;18.80;99.90;;;;;;5072714;28;20397;-67
2021/04/11 11:24:16;;;;;;;12.33;10.87;;;19.00;99.90;;;;;;5072020;28;20418;-67
2021/04/11 11:27:18;;;;;;;11.87;10.37;;;19.00;99.90;;;;;;5065947;28;20453;-69
2021/04/11 11:30:20;;;;;;;10.00;9.00;;;19.50;99.90;;;;;;5038465;28;20417;-68
2021/04/11 11:33:11;;;;;;;11.77;9.27;;;19.90;99.90;;;;;;5032522;28;20423;-68
2021/04/11 11:35:52;;;;;;;16.73;9.53;;;20.20;99.90;;;;;;5068604;28;20449;-67
2021/04/11 11:38:28;;;;;;;10.70;9.60;;;20.40;99.90;;;;;;5071180;28;20415;-68
2021/04/11 11:41:05;;;;;;;12.20;9.30;;;20.30;99.90;;;;;;5070568;28;20409;-67
2021/04/11 11:43:36;;;;;;;10.80;8.97;;;20.10;99.90;;;;;;5071024;28;20477;-68
2021/04/11 11:46:15;;;;;;;10.13;8.87;;;20.10;99.90;;;;;;5066391;28;20422;-67
2021/04/11 11:48:55;;;;;;;12.40;10.00;;;20.10;99.90;;;;;;5072473;28;20447;-67
2021/04/11 11:51:37;;;;;;;9.00;8.10;;;19.90;99.90;;;;;;5073276;28;21029;-67
2021/04/11 11:54:11;;;;;;;11.90;10.17;;;19.80;99.90;;;;;;5070822;28;20889;-68
2021/04/11 11:56:44;;;;;;;14.80;10.70;;;19.80;99.90;;;;;;5067859;28;20803;-67
2021/04/11 11:59:18;;;;;;;10.83;8.57;;;19.70;99.90;;;;;;5063719;28;20423;-68
2021/04/11 12:01:51;;;;;;;11.80;8.33;;;19.40;99.90;;;;;;5070035;28;20414;-68
2021/04/11 12:04:45;;;;;;;11.77;8.30;;;19.30;99.90;;;;;;5054254;28;20438;-68
2021/04/11 12:07:23;;;;;;;10.33;7.60;;;19.40;99.90;;;;;;5074121;28;20462;-69
2021/04/11 12:12:53;;;;;;;9.10;8.00;;;19.90;99.90;;;;;;4990445;28;20464;-69
2021/04/11 12:15:25;;;;;;;9.67;7.60;;;20.00;99.90;;;;;;5009342;28;20441;-68
2021/04/11 12:17:59;;;;;;;9.40;7.53;;;20.20;99.90;;;;;;5022348;28;20967;-70
2021/04/11 12:20:30;;;;;;;9.90;7.80;;;20.10;99.90;;;;;;5030278;28;20502;-70
2021/04/11 12:23:04;;;;;;;8.73;6.90;;;20.10;99.90;;;;;;5040522;28;20394;-69
2021/04/11 12:25:34;;;;;;;6.87;5.53;;;20.30;99.90;;;;;;5049954;28;21229;-70
2021/04/11 12:28:14;;;;;;;6.90;5.90;;;20.50;99.90;;;;;;5050254;28;20483;-69
2021/04/11 12:30:43;;;;;;;6.47;4.60;;;20.50;99.90;;;;;;5039690;28;20522;-70
2021/04/11 12:33:30;;;;;;;7.43;6.40;;;20.50;99.90;;;;;;5029804;28;20550;-69
2021/04/11 12:36:09;;;;;;;5.53;4.93;;;20.60;99.90;;;;;;5020905;28;20807;-69
2021/04/11 12:38:42;;;;;;;6.57;5.30;;;20.50;99.90;;;;;;5029288;28;20435;-68
2021/04/11 12:41:18;;;;;;;6.57;5.20;;;20.20;99.90;;;;;;5029577;28;20526;-69
2021/04/11 12:43:57;;;;;;;5.73;5.13;;;20.10;99.90;;;;;;5039437;28;21177;-69
2021/04/11 12:46:32;;;;;;;6.80;4.97;;;20.10;99.90;;;;;;5048199;28;20398;-70
2021/04/11 12:49:05;;;;;;;4.93;4.40;;;20.40;99.90;;;;;;5048764;28;20906;-68
2021/04/11 12:51:38;;;;;;;5.60;4.30;;;20.40;99.90;;;;;;5031807;28;20921;-69
2021/04/11 12:54:12;;;;;;;4.97;4.47;;;20.30;99.90;;;;;;5034715;28;20723;-69
2021/04/11 12:56:42;;;;;;;4.73;4.33;;;20.40;99.90;;;;;;5028782;28;20477;-71
2021/04/11 12:59:17;;;;;;;5.97;4.60;;;20.60;99.90;;;;;;5029826;28;20451;-70
2021/04/11 13:01:47;;;;;;;6.30;4.40;;;21.00;99.90;;;;;;5043830;28;20434;-70
2021/04/11 13:04:21;;;;;;;7.63;4.30;;;21.20;99.90;;;;;;5046070;28;20436;-70
2021/04/11 13:06:54;;;;;;;5.97;4.73;;;21.10;99.90;;;;;;5013778;28;20423;-70
2021/04/11 13:09:55;;;;;;;7.07;4.90;;;20.90;99.90;;;;;;5013675;28;20425;-69
2021/04/11 13:12:34;;;;;;;7.13;4.67;;;20.90;99.90;;;;;;5013502;28;20969;-69
2021/04/11 13:15:11;;;;;;;4.60;4.20;;;21.30;99.90;;;;;;5030673;28;20486;-68
2021/04/11 13:17:42;;;;;;;4.37;4.00;;;21.70;99.90;;;;;;5032052;28;20955;-69
2021/04/11 13:20:18;;;;;;;7.30;5.00;;;21.60;99.90;;;;;;5032641;28;20525;-69
2021/04/11 13:22:53;;;;;;;6.43;4.50;;;21.90;99.90;;;;;;5027738;28;20522;-70
2021/04/11 13:25:31;;;;;;;6.67;5.37;;;22.10;99.90;;;;;;5032521;28;20525;-68
2021/04/11 13:28:14;;;;;;;4.33;3.83;;;21.90;99.90;;;;;;5013713;28;20448;-70
2021/04/11 13:30:47;;;;;;;6.03;4.43;;;22.10;99.90;;;;;;5015159;28;20452;-69
2021/04/11 13:33:19;;;;;;;4.47;4.00;;;22.30;99.90;;;;;;5021052;28;20476;-69
2021/04/11 13:35:56;;;;;;;5.40;4.43;;;22.30;99.90;;;;;;5054196;28;20419;-70